sensor_id;sensor_type;location;lat;lon;timestamp;pressure;altitude;pressure_sealevel;temperature;humidity
13604;BME280;24578;48.264;11.436;2023-04-22T00:00:52;95616.41;;;7.87;100.00
13604;BME280;24578;48.264;11.436;2023-04-22T00:04:15;95609.00;;;7.82;100.00
13604;BME280;24578;48.264;11.436;2023-04-22T00:07:36;95621.25;;;7.78;100.00
13604;BME280;24578;48.264;11.436;2023-04-22T00:10:58;95619.84;;;7.74;100.00
13604;BME280;24578;48.264;11.436;2023-04-22T00:14:20;95614.06;;;7.71;100.00
13604;BME280;24578;48.264;11.436;2023-04-22T00:17:42;95609.16;;;7.68;100.00
13604;BME280;24578;48.264;11.436;2023-04-22T00:21:04;95617.09;;;7.65;100.00
13604;BME280;24578;48.264;11.436;2023-04-22T00:24:26;95614.84;;;7.60;100.00
13604;BME280;24578;48.264;11.436;2023-04-22T00:27:48;95611.56;;;7.58;100.00
13604;BME280;24578;48.264;11.436;2023-04-22T00:31:10;95605.91;;;7.53;100.00
13604;BME280;24578;48.264;11.436;2023-04-22T00:34:31;95608.69;;;7.50;100.00
13604;BME280;24578;48.264;11.436;2023-04-22T00:37:53;95607.38;;;7.44;100.00
13604;BME280;24578;48.264;11.436;2023-04-22T00:41:16;95599.16;;;7.39;100.00
13604;BME280;24578;48.264;11.436;2023-04-22T00:44:39;95610.16;;;7.41;100.00
13604;BME280;24578;48.264;11.436;2023-04-22T00:48:01;95596.66;;;7.37;100.00
13604;BME280;24578;48.264;11.436;2023-04-22T00:51:23;95601.94;;;7.36;100.00
13604;BME280;24578;48.264;11.436;2023-04-22T00:54:45;95600.38;;;7.33;100.00
13604;BME280;24578;48.264;11.436;2023-04-22T00:58:09;95595.22;;;7.33;100.00
13604;BME280;24578;48.264;11.436;2023-04-22T01:01:31;95594.13;;;7.24;100.00
13604;BME280;24578;48.264;11.436;2023-04-22T01:04:53;95601.84;;;7.24;100.00
13604;BME280;24578;48.264;11.436;2023-04-22T01:08:15;95596.94;;;7.21;100.00
13604;BME280;24578;48.264;11.436;2023-04-22T01:11:38;95596.09;;;7.21;100.00
13604;BME280;24578;48.264;11.436;2023-04-22T01:15:00;95597.13;;;7.18;100.00
13604;BME280;24578;48.264;11.436;2023-04-22T01:18:22;95604.25;;;7.14;100.00
13604;BME280;24578;48.264;11.436;2023-04-22T01:21:46;95605.25;;;7.12;100.00
13604;BME280;24578;48.264;11.436;2023-04-22T01:25:11;95596.13;;;7.08;100.00
13604;BME280;24578;48.264;11.436;2023-04-22T01:28:33;95611.06;;;7.03;100.00
13604;BME280;24578;48.264;11.436;2023-04-22T01:31:55;95606.09;;;6.99;100.00
13604;BME280;24578;48.264;11.436;2023-04-22T01:35:17;95606.31;;;6.96;100.00
13604;BME280;24578;48.264;11.436;2023-04-22T01:38:39;95591.06;;;6.93;100.00
13604;BME280;24578;48.264;11.436;2023-04-22T01:42:02;95597.38;;;6.89;100.00
13604;BME280;24578;48.264;11.436;2023-04-22T01:45:24;95599.94;;;6.89;100.00
13604;BME280;24578;48.264;11.436;2023-04-22T01:48:46;95597.56;;;6.86;100.00
13604;BME280;24578;48.264;11.436;2023-04-22T01:52:12;95611.47;;;6.83;100.00
13604;BME280;24578;48.264;11.436;2023-04-22T01:55:33;95614.25;;;6.80;100.00
13604;BME280;24578;48.264;11.436;2023-04-22T01:58:57;95615.19;;;6.79;100.00
13604;BME280;24578;48.264;11.436;2023-04-22T02:02:19;95612.91;;;6.75;100.00
13604;BME280;24578;48.264;11.436;2023-04-22T02:05:41;95618.97;;;6.74;100.00
13604;BME280;24578;48.264;11.436;2023-04-22T02:09:02;95613.31;;;6.68;100.00
13604;BME280;24578;48.264;11.436;2023-04-22T02:12:25;95617.66;;;6.68;100.00
13604;BME280;24578;48.264;11.436;2023-04-22T02:15:46;95617.13;;;6.63;100.00
13604;BME280;24578;48.264;11.436;2023-04-22T02:19:08;95613.94;;;6.59;100.00
13604;BME280;24578;48.264;11.436;2023-04-22T02:22:32;95613.28;;;6.55;100.00
13604;BME280;24578;48.264;11.436;2023-04-22T02:25:54;95611.94;;;6.50;100.00
13604;BME280;24578;48.264;11.436;2023-04-22T02:29:16;95608.88;;;6.45;100.00
13604;BME280;24578;48.264;11.436;2023-04-22T02:32:38;95605.78;;;6.39;100.00
13604;BME280;24578;48.264;11.436;2023-04-22T02:36:00;95610.38;;;6.34;100.00
13604;BME280;24578;48.264;11.436;2023-04-22T02:39:22;95598.75;;;6.29;100.00
13604;BME280;24578;48.264;11.436;2023-04-22T02:42:44;95600.91;;;6.22;100.00
13604;BME280;24578;48.264;11.436;2023-04-22T02:46:05;95611.31;;;6.20;100.00
13604;BME280;24578;48.264;11.436;2023-04-22T02:49:27;95602.44;;;6.12;100.00
13604;BME280;24578;48.264;11.436;2023-04-22T02:52:49;95600.97;;;6.07;100.00
13604;BME280;24578;48.264;11.436;2023-04-22T02:56:11;95608.88;;;6.04;100.00
13604;BME280;24578;48.264;11.436;2023-04-22T02:59:34;95603.19;;;5.99;100.00
13604;BME280;24578;48.264;11.436;2023-04-22T03:02:57;95602.66;;;5.94;100.00
13604;BME280;24578;48.264;11.436;2023-04-22T03:06:19;95608.00;;;5.91;100.00
13604;BME280;24578;48.264;11.436;2023-04-22T03:09:41;95599.66;;;5.87;100.00
13604;BME280;24578;48.264;11.436;2023-04-22T03:13:03;95602.59;;;5.81;100.00
13604;BME280;24578;48.264;11.436;2023-04-22T03:16:24;95596.97;;;5.76;100.00
13604;BME280;24578;48.264;11.436;2023-04-22T03:19:46;95592.94;;;5.72;100.00
13604;BME280;24578;48.264;11.436;2023-04-22T03:23:08;95594.88;;;5.68;100.00
13604;BME280;24578;48.264;11.436;2023-04-22T03:26:30;95597.81;;;5.62;100.00
13604;BME280;24578;48.264;11.436;2023-04-22T03:29:51;95600.69;;;5.57;100.00
13604;BME280;24578;48.264;11.436;2023-04-22T03:33:13;95601.16;;;5.49;100.00
13604;BME280;24578;48.264;11.436;2023-04-22T03:36:35;95602.16;;;5.47;100.00
13604;BME280;24578;48.264;11.436;2023-04-22T03:39:57;95609.31;;;5.42;100.00
13604;BME280;24578;48.264;11.436;2023-04-22T03:43:18;95602.91;;;5.34;100.00
13604;BME280;24578;48.264;11.436;2023-04-22T03:46:40;95606.78;;;5.27;100.00
13604;BME280;24578;48.264;11.436;2023-04-22T03:50:02;95607.16;;;5.21;100.00
13604;BME280;24578;48.264;11.436;2023-04-22T03:53:24;95594.69;;;5.15;100.00
13604;BME280;24578;48.264;11.436;2023-04-22T03:56:46;95611.09;;;5.12;100.00
13604;BME280;24578;48.264;11.436;2023-04-22T04:00:08;95618.06;;;5.10;100.00
13604;BME280;24578;48.264;11.436;2023-04-22T04:03:29;95613.09;;;5.07;100.00
13604;BME280;24578;48.264;11.436;2023-04-22T04:06:51;95619.88;;;5.08;100.00
13604;BME280;24578;48.264;11.436;2023-04-22T04:10:13;95617.53;;;5.05;100.00
13604;BME280;24578;48.264;11.436;2023-04-22T04:13:35;95606.44;;;5.05;100.00
13604;BME280;24578;48.264;11.436;2023-04-22T04:16:56;95620.16;;;5.03;100.00
13604;BME280;24578;48.264;11.436;2023-04-22T04:20:19;95615.03;;;5.03;100.00
13604;BME280;24578;48.264;11.436;2023-04-22T04:23:40;95611.44;;;5.06;100.00
13604;BME280;24578;48.264;11.436;2023-04-22T04:27:02;95611.09;;;5.12;100.00
13604;BME280;24578;48.264;11.436;2023-04-22T04:30:24;95606.53;;;5.17;100.00
13604;BME280;24578;48.264;11.436;2023-04-22T04:33:48;95599.91;;;5.28;100.00
13604;BME280;24578;48.264;11.436;2023-04-22T04:37:10;95612.81;;;5.41;100.00
13604;BME280;24578;48.264;11.436;2023-04-22T04:40:33;95603.72;;;5.49;100.00
13604;BME280;24578;48.264;11.436;2023-04-22T04:43:55;95607.16;;;5.63;100.00
13604;BME280;24578;48.264;11.436;2023-04-22T04:47:16;95616.66;;;5.75;100.00
13604;BME280;24578;48.264;11.436;2023-04-22T04:50:42;95616.00;;;5.86;100.00
13604;BME280;24578;48.264;11.436;2023-04-22T04:54:03;95619.16;;;6.04;100.00
13604;BME280;24578;48.264;11.436;2023-04-22T04:57:25;95619.75;;;6.22;100.00
13604;BME280;24578;48.264;11.436;2023-04-22T05:00:47;95615.13;;;6.40;100.00
13604;BME280;24578;48.264;11.436;2023-04-22T05:04:09;95609.53;;;6.61;100.00
13604;BME280;24578;48.264;11.436;2023-04-22T05:07:31;95611.38;;;6.85;100.00
13604;BME280;24578;48.264;11.436;2023-04-22T05:10:52;95612.97;;;7.12;100.00
13604;BME280;24578;48.264;11.436;2023-04-22T05:14:14;95602.72;;;7.49;100.00
13604;BME280;24578;48.264;11.436;2023-04-22T05:17:37;95605.13;;;8.01;100.00
13604;BME280;24578;48.264;11.436;2023-04-22T05:20:59;95609.59;;;9.27;100.00
13604;BME280;24578;48.264;11.436;2023-04-22T05:24:21;95594.81;;;11.83;100.00
13604;BME280;24578;48.264;11.436;2023-04-22T05:27:42;95584.31;;;14.13;100.00
13604;BME280;24578;48.264;11.436;2023-04-22T05:31:05;95584.78;;;15.66;100.00
13604;BME280;24578;48.264;11.436;2023-04-22T05:34:27;95592.09;;;16.80;100.00
13604;BME280;24578;48.264;11.436;2023-04-22T05:37:53;95589.78;;;17.90;80.81
13604;BME280;24578;48.264;11.436;2023-04-22T05:41:14;95597.53;;;18.99;70.01
13604;BME280;24578;48.264;11.436;2023-04-22T05:44:37;95595.16;;;20.01;61.40
13604;BME280;24578;48.264;11.436;2023-04-22T05:47:58;95608.63;;;20.57;55.22
13604;BME280;24578;48.264;11.436;2023-04-22T05:51:21;95604.72;;;21.24;51.89
13604;BME280;24578;48.264;11.436;2023-04-22T05:54:44;95609.53;;;21.98;46.88
13604;BME280;24578;48.264;11.436;2023-04-22T05:58:05;95613.81;;;22.05;45.80
13604;BME280;24578;48.264;11.436;2023-04-22T06:01:27;95610.44;;;22.25;44.98
13604;BME280;24578;48.264;11.436;2023-04-22T06:04:49;95608.38;;;22.20;43.70
13604;BME280;24578;48.264;11.436;2023-04-22T06:08:11;95608.06;;;22.57;44.04
13604;BME280;24578;48.264;11.436;2023-04-22T06:11:32;95611.69;;;23.30;42.03
13604;BME280;24578;48.264;11.436;2023-04-22T06:14:54;95616.47;;;23.60;39.91
13604;BME280;24578;48.264;11.436;2023-04-22T06:18:16;95603.38;;;23.85;37.18
13604;BME280;24578;48.264;11.436;2023-04-22T06:21:37;95616.13;;;24.02;37.54
13604;BME280;24578;48.264;11.436;2023-04-22T06:25:01;95610.13;;;24.27;35.87
13604;BME280;24578;48.264;11.436;2023-04-22T06:28:23;95602.97;;;24.91;35.17
13604;BME280;24578;48.264;11.436;2023-04-22T06:31:44;95621.41;;;25.23;33.53
13604;BME280;24578;48.264;11.436;2023-04-22T06:35:06;95616.53;;;25.46;32.23
13604;BME280;24578;48.264;11.436;2023-04-22T06:38:28;95605.88;;;26.20;31.12
13604;BME280;24578;48.264;11.436;2023-04-22T06:41:50;95609.19;;;27.00;31.05
13604;BME280;24578;48.264;11.436;2023-04-22T06:45:12;95614.72;;;27.11;28.57
13604;BME280;24578;48.264;11.436;2023-04-22T06:48:33;95618.00;;;26.70;29.31
13604;BME280;24578;48.264;11.436;2023-04-22T06:51:55;95604.22;;;26.50;29.88
13604;BME280;24578;48.264;11.436;2023-04-22T06:55:17;95604.53;;;26.41;29.42
13604;BME280;24578;48.264;11.436;2023-04-22T06:58:39;95603.75;;;26.41;29.47
13604;BME280;24578;48.264;11.436;2023-04-22T07:02:01;95609.03;;;26.10;28.52
13604;BME280;24578;48.264;11.436;2023-04-22T07:05:22;95611.16;;;25.90;29.38
13604;BME280;24578;48.264;11.436;2023-04-22T07:08:44;95592.16;;;26.78;28.67
13604;BME280;24578;48.264;11.436;2023-04-22T07:12:06;95599.22;;;27.55;27.21
13604;BME280;24578;48.264;11.436;2023-04-22T07:15:28;95600.69;;;28.16;27.82
13604;BME280;24578;48.264;11.436;2023-04-22T07:18:50;95604.09;;;28.74;26.15
13604;BME280;24578;48.264;11.436;2023-04-22T07:22:12;95592.69;;;29.13;25.94
13604;BME280;24578;48.264;11.436;2023-04-22T07:25:34;95598.47;;;28.88;26.08
13604;BME280;24578;48.264;11.436;2023-04-22T07:28:56;95585.66;;;29.41;25.98
13604;BME280;24578;48.264;11.436;2023-04-22T07:32:18;95578.31;;;30.20;24.83
13604;BME280;24578;48.264;11.436;2023-04-22T07:35:40;95575.72;;;30.58;24.16
13604;BME280;24578;48.264;11.436;2023-04-22T07:39:01;95587.41;;;30.51;24.72
13604;BME280;24578;48.264;11.436;2023-04-22T07:42:23;95584.91;;;29.90;23.91
13604;BME280;24578;48.264;11.436;2023-04-22T07:45:45;95589.56;;;29.77;24.81
13604;BME280;24578;48.264;11.436;2023-04-22T07:49:07;95589.00;;;29.75;24.03
13604;BME280;24578;48.264;11.436;2023-04-22T07:52:29;95583.34;;;29.94;23.35
13604;BME280;24578;48.264;11.436;2023-04-22T07:55:50;95577.06;;;30.60;23.94
13604;BME280;24578;48.264;11.436;2023-04-22T07:59:12;95569.72;;;31.69;22.42
13604;BME280;24578;48.264;11.436;2023-04-22T08:02:34;95576.84;;;32.22;21.78
13604;BME280;24578;48.264;11.436;2023-04-22T08:05:56;95583.78;;;32.07;21.52
13604;BME280;24578;48.264;11.436;2023-04-22T08:09:18;95588.88;;;32.14;22.18
13604;BME280;24578;48.264;11.436;2023-04-22T08:12:40;95586.66;;;31.80;21.75
13604;BME280;24578;48.264;11.436;2023-04-22T08:16:02;95585.59;;;31.76;22.07
13604;BME280;24578;48.264;11.436;2023-04-22T08:19:24;95587.25;;;32.02;21.47
13604;BME280;24578;48.264;11.436;2023-04-22T08:22:45;95585.91;;;32.05;21.18
13604;BME280;24578;48.264;11.436;2023-04-22T08:26:08;95580.75;;;31.78;21.16
13604;BME280;24578;48.264;11.436;2023-04-22T08:29:32;95583.72;;;31.86;21.06
13604;BME280;24578;48.264;11.436;2023-04-22T08:32:54;95583.63;;;31.66;22.28
13604;BME280;24578;48.264;11.436;2023-04-22T08:36:16;95589.13;;;32.07;21.75
13604;BME280;24578;48.264;11.436;2023-04-22T08:39:38;95583.34;;;32.41;21.40
13604;BME280;24578;48.264;11.436;2023-04-22T08:43:00;95586.81;;;31.63;22.75
13604;BME280;24578;48.264;11.436;2023-04-22T08:46:22;95585.88;;;30.93;22.49
13604;BME280;24578;48.264;11.436;2023-04-22T08:49:53;95597.03;;;29.36;24.22
13604;BME280;24578;48.264;11.436;2023-04-22T08:53:21;95586.44;;;29.02;25.53
13604;BME280;24578;48.264;11.436;2023-04-22T08:56:44;95585.59;;;29.58;25.77
13604;BME280;24578;48.264;11.436;2023-04-22T09:00:06;95587.31;;;30.14;23.79
13604;BME280;24578;48.264;11.436;2023-04-22T09:03:35;95570.28;;;31.18;23.19
13604;BME280;24578;48.264;11.436;2023-04-22T09:07:00;95573.41;;;32.42;21.93
13604;BME280;24578;48.264;11.436;2023-04-22T09:10:23;95566.22;;;32.84;20.41
13604;BME280;24578;48.264;11.436;2023-04-22T09:13:46;95573.09;;;33.26;21.19
13604;BME280;24578;48.264;11.436;2023-04-22T09:17:07;95562.47;;;32.85;20.68
13604;BME280;24578;48.264;11.436;2023-04-22T09:20:30;95566.69;;;32.24;21.21
13604;BME280;24578;48.264;11.436;2023-04-22T09:23:53;95564.59;;;32.57;20.66
13604;BME280;24578;48.264;11.436;2023-04-22T09:27:16;95553.66;;;32.84;21.03
13604;BME280;24578;48.264;11.436;2023-04-22T09:30:38;95557.66;;;32.87;20.20
13604;BME280;24578;48.264;11.436;2023-04-22T09:34:00;95560.31;;;32.71;20.29
13604;BME280;24578;48.264;11.436;2023-04-22T09:37:25;95556.31;;;32.69;21.27
13604;BME280;24578;48.264;11.436;2023-04-22T09:40:47;95551.75;;;32.43;21.89
13604;BME280;24578;48.264;11.436;2023-04-22T09:44:15;95552.56;;;32.39;21.35
13604;BME280;24578;48.264;11.436;2023-04-22T09:47:38;95555.19;;;33.16;21.00
13604;BME280;24578;48.264;11.436;2023-04-22T09:51:00;95549.84;;;33.92;20.71
13604;BME280;24578;48.264;11.436;2023-04-22T09:54:22;95551.13;;;34.45;20.37
13604;BME280;24578;48.264;11.436;2023-04-22T09:57:44;95551.28;;;34.19;20.19
13604;BME280;24578;48.264;11.436;2023-04-22T10:01:06;95549.19;;;34.51;20.25
13604;BME280;24578;48.264;11.436;2023-04-22T10:04:29;95535.28;;;34.78;20.44
13604;BME280;24578;48.264;11.436;2023-04-22T10:07:51;95538.41;;;33.66;21.33
13604;BME280;24578;48.264;11.436;2023-04-22T10:11:13;95543.50;;;33.67;20.85
13604;BME280;24578;48.264;11.436;2023-04-22T10:14:35;95534.50;;;33.98;20.54
13604;BME280;24578;48.264;11.436;2023-04-22T10:17:58;95531.66;;;34.24;20.62
13604;BME280;24578;48.264;11.436;2023-04-22T10:21:24;95534.03;;;33.91;20.95
13604;BME280;24578;48.264;11.436;2023-04-22T10:24:47;95528.91;;;33.89;20.05
13604;BME280;24578;48.264;11.436;2023-04-22T10:28:10;95531.34;;;33.91;19.76
13604;BME280;24578;48.264;11.436;2023-04-22T10:31:32;95523.53;;;33.18;19.50
13604;BME280;24578;48.264;11.436;2023-04-22T10:35:13;95522.56;;;32.42;21.14
13604;BME280;24578;48.264;11.436;2023-04-22T10:38:40;95515.59;;;32.46;20.92
13604;BME280;24578;48.264;11.436;2023-04-22T10:42:04;95512.81;;;33.18;20.70
13604;BME280;24578;48.264;11.436;2023-04-22T10:45:26;95512.03;;;33.23;21.22
13604;BME280;24578;48.264;11.436;2023-04-22T10:48:51;95504.94;;;33.53;19.79
13604;BME280;24578;48.264;11.436;2023-04-22T10:52:27;95508.75;;;33.31;19.28
13604;BME280;24578;48.264;11.436;2023-04-22T10:55:51;95498.44;;;32.62;19.90
13604;BME280;24578;48.264;11.436;2023-04-22T10:59:16;95501.78;;;31.59;19.94
13604;BME280;24578;48.264;11.436;2023-04-22T11:02:38;95495.84;;;31.42;22.74
13604;BME280;24578;48.264;11.436;2023-04-22T11:06:16;95492.81;;;32.07;21.19
13604;BME280;24578;48.264;11.436;2023-04-22T11:09:39;95495.97;;;31.78;21.40
13604;BME280;24578;48.264;11.436;2023-04-22T11:13:01;95502.88;;;31.69;21.21
13604;BME280;24578;48.264;11.436;2023-04-22T11:16:23;95491.78;;;31.24;22.04
13604;BME280;24578;48.264;11.436;2023-04-22T11:19:46;95497.34;;;31.22;21.90
13604;BME280;24578;48.264;11.436;2023-04-22T11:23:08;95498.25;;;31.49;22.18
13604;BME280;24578;48.264;11.436;2023-04-22T11:26:33;95492.00;;;31.96;20.72
13604;BME280;24578;48.264;11.436;2023-04-22T11:33:25;95490.13;;;32.23;21.80
13604;BME280;24578;48.264;11.436;2023-04-22T11:36:47;95492.84;;;32.54;18.72
13604;BME280;24578;48.264;11.436;2023-04-22T11:40:10;95492.50;;;31.83;19.00
13604;BME280;24578;48.264;11.436;2023-04-22T11:43:32;95495.34;;;30.97;20.91
13604;BME280;24578;48.264;11.436;2023-04-22T11:46:55;95492.91;;;30.90;21.87
13604;BME280;24578;48.264;11.436;2023-04-22T11:50:21;95492.47;;;31.09;19.07
13604;BME280;24578;48.264;11.436;2023-04-22T11:53:49;95485.94;;;30.84;20.56
13604;BME280;24578;48.264;11.436;2023-04-22T11:57:12;95487.75;;;31.21;21.06
13604;BME280;24578;48.264;11.436;2023-04-22T12:00:45;95479.56;;;31.54;20.90
13604;BME280;24578;48.264;11.436;2023-04-22T12:04:09;95484.25;;;32.05;20.28
13604;BME280;24578;48.264;11.436;2023-04-22T12:07:31;95475.69;;;32.24;20.67
13604;BME280;24578;48.264;11.436;2023-04-22T12:10:55;95472.97;;;31.77;20.03
13604;BME280;24578;48.264;11.436;2023-04-22T12:14:17;95483.44;;;32.10;20.96
13604;BME280;24578;48.264;11.436;2023-04-22T12:17:39;95476.00;;;31.27;21.31
13604;BME280;24578;48.264;11.436;2023-04-22T12:21:08;95471.00;;;30.93;20.04
13604;BME280;24578;48.264;11.436;2023-04-22T12:24:30;95474.22;;;30.95;20.35
13604;BME280;24578;48.264;11.436;2023-04-22T12:27:52;95474.81;;;31.08;20.72
13604;BME280;24578;48.264;11.436;2023-04-22T12:31:14;95466.28;;;31.06;20.37
13604;BME280;24578;48.264;11.436;2023-04-22T12:34:36;95469.53;;;30.70;21.57
13604;BME280;24578;48.264;11.436;2023-04-22T12:37:57;95464.81;;;31.31;20.86
13604;BME280;24578;48.264;11.436;2023-04-22T12:41:19;95466.22;;;31.54;20.71
13604;BME280;24578;48.264;11.436;2023-04-22T12:44:41;95468.59;;;30.92;20.97
13604;BME280;24578;48.264;11.436;2023-04-22T12:48:04;95464.00;;;30.06;21.46
13604;BME280;24578;48.264;11.436;2023-04-22T12:51:25;95471.91;;;30.29;21.74
13604;BME280;24578;48.264;11.436;2023-04-22T12:54:47;95463.31;;;29.39;22.09
13604;BME280;24578;48.264;11.436;2023-04-22T12:58:09;95453.94;;;28.92;22.76
13604;BME280;24578;48.264;11.436;2023-04-22T13:01:31;95454.00;;;29.20;23.18
13604;BME280;24578;48.264;11.436;2023-04-22T13:04:53;95449.91;;;29.56;22.20
13604;BME280;24578;48.264;11.436;2023-04-22T13:08:16;95448.78;;;29.30;21.60
13604;BME280;24578;48.264;11.436;2023-04-22T13:11:38;95448.09;;;29.89;21.36
13604;BME280;24578;48.264;11.436;2023-04-22T13:15:00;95437.94;;;30.19;20.87
13604;BME280;24578;48.264;11.436;2023-04-22T13:18:22;95445.38;;;30.12;21.63
13604;BME280;24578;48.264;11.436;2023-04-22T13:21:44;95434.44;;;29.86;22.46
13604;BME280;24578;48.264;11.436;2023-04-22T13:25:07;95434.13;;;29.27;22.85
13604;BME280;24578;48.264;11.436;2023-04-22T13:28:30;95427.97;;;28.82;22.62
13604;BME280;24578;48.264;11.436;2023-04-22T13:31:51;95425.03;;;29.01;22.53
13604;BME280;24578;48.264;11.436;2023-04-22T13:35:13;95422.13;;;29.80;21.82
13604;BME280;24578;48.264;11.436;2023-04-22T13:38:36;95418.72;;;30.17;20.93
13604;BME280;24578;48.264;11.436;2023-04-22T13:41:58;95409.94;;;31.12;20.02
13604;BME280;24578;48.264;11.436;2023-04-22T13:45:20;95410.59;;;31.51;20.05
13604;BME280;24578;48.264;11.436;2023-04-22T13:48:42;95402.00;;;31.38;19.65
13604;BME280;24578;48.264;11.436;2023-04-22T13:52:03;95401.50;;;30.73;20.62
13604;BME280;24578;48.264;11.436;2023-04-22T13:55:25;95401.44;;;31.21;20.13
13604;BME280;24578;48.264;11.436;2023-04-22T13:58:47;95396.44;;;31.50;19.62
13604;BME280;24578;48.264;11.436;2023-04-22T14:02:09;95391.09;;;32.54;19.01
13604;BME280;24578;48.264;11.436;2023-04-22T14:05:31;95389.25;;;33.65;17.66
13604;BME280;24578;48.264;11.436;2023-04-22T14:08:53;95371.91;;;34.56;17.40
13604;BME280;24578;48.264;11.436;2023-04-22T14:12:15;95377.63;;;35.17;17.03
13604;BME280;24578;48.264;11.436;2023-04-22T14:15:37;95385.63;;;33.90;18.22
13604;BME280;24578;48.264;11.436;2023-04-22T14:18:59;95392.47;;;32.30;20.19
13604;BME280;24578;48.264;11.436;2023-04-22T14:22:23;95390.81;;;31.57;19.18
13604;BME280;24578;48.264;11.436;2023-04-22T14:25:46;95384.78;;;31.03;19.39
13604;BME280;24578;48.264;11.436;2023-04-22T14:29:08;95380.44;;;31.76;19.36
13604;BME280;24578;48.264;11.436;2023-04-22T14:32:30;95379.44;;;31.03;20.31
13604;BME280;24578;48.264;11.436;2023-04-22T14:35:52;95374.59;;;30.95;21.47
13604;BME280;24578;48.264;11.436;2023-04-22T14:39:13;95371.22;;;31.15;21.52
13604;BME280;24578;48.264;11.436;2023-04-22T14:42:36;95369.47;;;30.83;20.99
13604;BME280;24578;48.264;11.436;2023-04-22T14:45:57;95375.97;;;30.06;22.68
13604;BME280;24578;48.264;11.436;2023-04-22T14:49:19;95382.72;;;28.82;24.16
13604;BME280;24578;48.264;11.436;2023-04-22T14:52:41;95381.50;;;27.65;25.64
13604;BME280;24578;48.264;11.436;2023-04-22T14:56:03;95383.47;;;26.48;26.91
13604;BME280;24578;48.264;11.436;2023-04-22T14:59:25;95382.16;;;25.91;27.91
13604;BME280;24578;48.264;11.436;2023-04-22T15:02:46;95382.56;;;25.33;28.31
13604;BME280;24578;48.264;11.436;2023-04-22T15:06:08;95382.84;;;25.13;28.84
13604;BME280;24578;48.264;11.436;2023-04-22T15:09:30;95387.66;;;24.86;29.31
13604;BME280;24578;48.264;11.436;2023-04-22T15:12:55;95385.06;;;24.60;29.65
13604;BME280;24578;48.264;11.436;2023-04-22T15:16:17;95387.03;;;24.28;29.86
13604;BME280;24578;48.264;11.436;2023-04-22T15:19:38;95385.00;;;24.23;30.31
13604;BME280;24578;48.264;11.436;2023-04-22T15:23:01;95384.88;;;24.18;30.78
13604;BME280;24578;48.264;11.436;2023-04-22T15:26:23;95383.31;;;24.10;31.29
13604;BME280;24578;48.264;11.436;2023-04-22T15:29:45;95389.28;;;23.99;31.19
13604;BME280;24578;48.264;11.436;2023-04-22T15:33:07;95381.44;;;23.85;31.85
13604;BME280;24578;48.264;11.436;2023-04-22T15:36:29;95386.03;;;23.71;32.30
13604;BME280;24578;48.264;11.436;2023-04-22T15:39:52;95380.44;;;23.54;32.34
13604;BME280;24578;48.264;11.436;2023-04-22T15:43:13;95379.28;;;23.44;31.62
13604;BME280;24578;48.264;11.436;2023-04-22T15:46:35;95394.03;;;23.26;33.04
13604;BME280;24578;48.264;11.436;2023-04-22T15:49:58;95386.63;;;23.03;33.15
13604;BME280;24578;48.264;11.436;2023-04-22T15:53:26;95392.38;;;22.79;34.75
13604;BME280;24578;48.264;11.436;2023-04-22T15:56:48;95394.63;;;22.69;33.56
13604;BME280;24578;48.264;11.436;2023-04-22T16:00:10;95395.09;;;22.53;34.92
13604;BME280;24578;48.264;11.436;2023-04-22T16:03:33;95393.47;;;22.45;34.37
13604;BME280;24578;48.264;11.436;2023-04-22T16:06:55;95387.59;;;22.36;34.35
13604;BME280;24578;48.264;11.436;2023-04-22T16:10:17;95390.84;;;22.31;35.11
13604;BME280;24578;48.264;11.436;2023-04-22T16:13:39;95396.94;;;22.25;35.29
13604;BME280;24578;48.264;11.436;2023-04-22T16:17:01;95398.78;;;22.18;36.35
13604;BME280;24578;48.264;11.436;2023-04-22T16:20:26;95396.13;;;22.18;35.76
13604;BME280;24578;48.264;11.436;2023-04-22T16:23:47;95385.81;;;22.03;35.78
13604;BME280;24578;48.264;11.436;2023-04-22T16:27:09;95395.31;;;22.04;35.36
13604;BME280;24578;48.264;11.436;2023-04-22T16:30:37;95397.97;;;22.11;36.13
13604;BME280;24578;48.264;11.436;2023-04-22T16:33:59;95392.28;;;22.20;34.85
13604;BME280;24578;48.264;11.436;2023-04-22T16:37:21;95387.22;;;22.19;35.50
13604;BME280;24578;48.264;11.436;2023-04-22T16:40:42;95387.44;;;22.17;35.79
13604;BME280;24578;48.264;11.436;2023-04-22T16:44:04;95386.22;;;22.00;34.75
13604;BME280;24578;48.264;11.436;2023-04-22T16:47:26;95383.38;;;21.95;34.79
13604;BME280;24578;48.264;11.436;2023-04-22T16:50:48;95376.88;;;21.90;34.48
13604;BME280;24578;48.264;11.436;2023-04-22T16:54:09;95372.03;;;21.74;35.07
13604;BME280;24578;48.264;11.436;2023-04-22T16:57:31;95370.63;;;21.71;34.82
13604;BME280;24578;48.264;11.436;2023-04-22T17:00:53;95380.94;;;21.73;34.86
13604;BME280;24578;48.264;11.436;2023-04-22T17:04:15;95376.09;;;21.63;34.91
13604;BME280;24578;48.264;11.436;2023-04-22T17:07:37;95371.19;;;21.53;34.86
13604;BME280;24578;48.264;11.436;2023-04-22T17:10:59;95373.59;;;21.41;35.50
13604;BME280;24578;48.264;11.436;2023-04-22T17:14:21;95379.22;;;21.25;36.72
13604;BME280;24578;48.264;11.436;2023-04-22T17:17:42;95377.59;;;21.17;36.05
13604;BME280;24578;48.264;11.436;2023-04-22T17:21:04;95383.81;;;21.03;36.19
13604;BME280;24578;48.264;11.436;2023-04-22T17:24:26;95379.56;;;21.02;36.31
13604;BME280;24578;48.264;11.436;2023-04-22T17:27:48;95378.28;;;20.84;36.26
13604;BME280;24578;48.264;11.436;2023-04-22T17:31:10;95380.44;;;20.74;37.71
13604;BME280;24578;48.264;11.436;2023-04-22T17:34:32;95390.91;;;20.60;38.17
13604;BME280;24578;48.264;11.436;2023-04-22T17:37:54;95389.81;;;20.48;38.07
13604;BME280;24578;48.264;11.436;2023-04-22T17:41:18;95389.31;;;20.31;38.78